Hauptseite
METAR-TAF:

METAR-TAF

Flughäfen :

Akulivik, Québec, Kanada

Breite: 60-49N, Länge: 078-09W, Höhe: 20 m

Beobachtung

Neuester Wetterbericht von vor 5 Stunden und 2 Minuten, um 21:00 UTC
Wind 11 kt aus Nordost, Böen bis zu 16 kt
Temperatur 0°C
Luftfeuchtigkeit 64%
Luftdruck 1016 hPa
Sichtweite: 16.1 km
Durchbrochene Bewölkung in der Höhe von 3300 ft
Durchbrochene Bewölkung in der Höhe von 15000 ft

METAR: CYKO 172100Z 04011G16KT 10SM BKN033 BKN150 M00/M06 A3000 RMK SC7AC1 AC TR SN CVR NIL LAST STFD OBS/NXT 181200UTC SLP163

Zeit: 22:02 (02:02 UTC)


TAF: fehlend

Wetterbeobachtungen und Prognosen von mehr als 4000 Flughäfen (METAR und TAF Bericht).

Die verfügbaren Stationen werden durch gelbe und rote Markierungen auf der Karte dargestellt.

Führen Sie die Maus auf sie, um den Namen der Station zu sehen.

Darauf klicken, um die Beobachtung von Wetterbeobachtungen und Prognosen zu sehen.

Um die Karte zu ändern : klicken Sie auf den grünen Tasten mit einem schwarzen Kreuz Zum Vergrößern, auf den grünen Button mit einem Gedankenstrich zu verkleinern, oder auf die grünen Pfeile für benachbarte Karten.


METAR-TAF: